createdAt,value
2024-03-15T00:01:54.922Z,100406.06
2024-03-15T00:04:57.829Z,100406.22
2024-03-15T00:08:00.411Z,100402.00
2024-03-15T00:11:06.560Z,100400.69
2024-03-15T00:14:11.285Z,100406.22
2024-03-15T00:17:14.512Z,100396.31
2024-03-15T00:20:17.239Z,100401.31
2024-03-15T00:23:20.135Z,100401.69
2024-03-15T00:26:22.875Z,100402.84
2024-03-15T00:29:25.709Z,100393.19
2024-03-15T00:32:28.768Z,100392.63
2024-03-15T00:35:31.799Z,100383.19
2024-03-15T00:38:34.429Z,100388.66
2024-03-15T00:41:37.340Z,100390.25
2024-03-15T00:44:39.870Z,100386.59
2024-03-15T00:47:42.972Z,100385.06
2024-03-15T00:50:45.631Z,100388.03
2024-03-15T00:53:48.619Z,100388.94
2024-03-15T00:56:51.207Z,100383.28
2024-03-15T00:59:54.207Z,100383.78
2024-03-15T01:02:56.873Z,100370.09
2024-03-15T01:06:00.237Z,100365.06
2024-03-15T01:09:02.840Z,100372.84
2024-03-15T01:12:06.131Z,100372.41
2024-03-15T01:15:09.132Z,100371.91
2024-03-15T01:18:12.710Z,100366.19
2024-03-15T01:21:15.398Z,100364.94
2024-03-15T01:24:18.383Z,100370.81
2024-03-15T01:27:21.055Z,100364.69
2024-03-15T01:30:24.029Z,100369.94
2024-03-15T01:33:29.378Z,100351.31
2024-03-15T01:36:32.352Z,100368.72
2024-03-15T01:39:35.034Z,100358.97
2024-03-15T01:42:38.094Z,100365.16
2024-03-15T01:45:42.055Z,100372.56
2024-03-15T01:48:45.931Z,100358.38
2024-03-15T01:51:49.028Z,100369.94
2024-03-15T01:54:56.089Z,100362.91
2024-03-15T01:58:00.911Z,100358.75
2024-03-15T02:01:04.276Z,100363.34
2024-03-15T02:04:08.236Z,100354.72
2024-03-15T02:07:10.917Z,100355.84
2024-03-15T02:10:16.525Z,100354.72
2024-03-15T02:13:19.360Z,100352.31
2024-03-15T02:16:22.508Z,100356.03
2024-03-15T02:19:26.051Z,100348.78
2024-03-15T02:22:29.017Z,100348.03
2024-03-15T02:25:31.842Z,100353.69
2024-03-15T02:28:34.831Z,100359.00
2024-03-15T02:31:37.490Z,100359.16
2024-03-15T02:34:40.468Z,100361.91
2024-03-15T02:37:43.180Z,100355.13
2024-03-15T02:40:46.106Z,100361.38
2024-03-15T02:43:48.826Z,100356.03
2024-03-15T02:46:51.852Z,100361.78
2024-03-15T02:49:57.258Z,100353.72
2024-03-15T02:53:01.244Z,100354.09
2024-03-15T02:56:04.189Z,100359.56
2024-03-15T02:59:08.413Z,100359.97
2024-03-15T03:02:11.081Z,100355.25
2024-03-15T03:05:13.947Z,100353.03
2024-03-15T03:08:16.624Z,100347.38
2024-03-15T03:11:19.556Z,100349.34
2024-03-15T03:14:22.192Z,100354.81
2024-03-15T03:17:26.786Z,100359.91
2024-03-15T03:20:34.139Z,100351.72
2024-03-15T03:23:37.089Z,100348.31
2024-03-15T03:26:39.675Z,100365.69
2024-03-15T03:29:42.844Z,100371.59
2024-03-15T03:32:45.509Z,100365.78
2024-03-15T03:35:48.427Z,100365.53
2024-03-15T03:38:51.094Z,100363.97
2024-03-15T03:41:56.027Z,100368.69
2024-03-15T03:44:59.247Z,100371.25
2024-03-15T03:48:02.211Z,100370.22
2024-03-15T03:51:05.592Z,100362.03
2024-03-15T03:54:10.429Z,100357.72
2024-03-15T03:57:35.234Z,100375.16
2024-03-15T04:00:46.031Z,100355.84
2024-03-15T04:03:52.153Z,100368.97
2024-03-15T04:06:54.763Z,100376.72
2024-03-15T04:09:58.451Z,100371.00
2024-03-15T04:13:01.439Z,100376.28
2024-03-15T04:16:05.520Z,100371.63
2024-03-15T04:19:11.200Z,100359.75
2024-03-15T04:22:14.470Z,100372.94
2024-03-15T04:25:18.170Z,100372.56
2024-03-15T04:28:21.104Z,100371.97
2024-03-15T04:31:24.105Z,100368.87
2024-03-15T04:34:26.941Z,100369.84
2024-03-15T04:37:30.047Z,100376.34
2024-03-15T04:40:32.976Z,100370.62
2024-03-15T04:43:36.082Z,100366.47
2024-03-15T04:46:38.992Z,100373.47
2024-03-15T04:49:41.629Z,100374.38
2024-03-15T04:52:44.540Z,100374.53
2024-03-15T04:55:47.215Z,100378.97
2024-03-15T04:58:50.159Z,100373.09
2024-03-15T05:01:53.683Z,100370.19
2024-03-15T05:04:56.564Z,100379.87
2024-03-15T05:07:59.208Z,100372.41
2024-03-15T05:11:03.262Z,100375.28
2024-03-15T05:14:06.909Z,100388.06
2024-03-15T05:17:09.789Z,100379.53
2024-03-15T05:20:14.689Z,100387.97
2024-03-15T05:23:18.685Z,100378.28
2024-03-15T05:26:21.955Z,100382.00
2024-03-15T05:29:24.816Z,100373.28
2024-03-15T05:32:29.551Z,100379.78
2024-03-15T05:35:32.584Z,100396.94
2024-03-15T05:38:35.210Z,100401.06
2024-03-15T05:41:40.210Z,100389.03
2024-03-15T05:44:42.780Z,100383.47
2024-03-15T05:47:46.022Z,100396.37
2024-03-15T05:50:49.065Z,100392.38
2024-03-15T05:53:52.010Z,100393.16
2024-03-15T05:56:54.561Z,100400.75
2024-03-15T05:59:57.502Z,100416.16
2024-03-15T06:03:04.203Z,100407.09
2024-03-15T06:06:09.936Z,100412.03
2024-03-15T06:09:14.412Z,100406.91
2024-03-15T06:12:17.667Z,100408.31
2024-03-15T06:15:20.773Z,100409.84
2024-03-15T06:18:23.888Z,100413.13
2024-03-15T06:21:28.132Z,100417.38
2024-03-15T06:24:31.241Z,100401.72
2024-03-15T06:27:34.102Z,100410.75
2024-03-15T06:30:44.570Z,100419.94
2024-03-15T06:33:50.313Z,100419.41
2024-03-15T06:36:55.843Z,100415.16
2024-03-15T06:39:58.710Z,100420.78
2024-03-15T06:43:04.716Z,100427.22
2024-03-15T06:46:11.036Z,100413.16
2024-03-15T06:49:14.432Z,100428.13
2024-03-15T06:52:36.205Z,100443.22
2024-03-15T06:55:39.381Z,100428.62
2024-03-15T06:58:44.326Z,100447.37
2024-03-15T07:01:47.254Z,100451.81
2024-03-15T07:04:52.609Z,100450.22
2024-03-15T07:07:55.495Z,100448.00
2024-03-15T07:10:58.115Z,100445.47
2024-03-15T07:14:05.397Z,100446.09
2024-03-15T07:17:10.394Z,100445.41
2024-03-15T07:20:14.812Z,100445.19
2024-03-15T07:23:17.925Z,100429.94
2024-03-15T07:26:20.849Z,100452.03
2024-03-15T07:29:23.510Z,100442.16
2024-03-15T07:32:26.608Z,100432.38
2024-03-15T07:35:29.257Z,100444.84
2024-03-15T07:38:32.458Z,100443.38
2024-03-15T07:41:35.761Z,100427.84
2024-03-15T07:44:38.938Z,100445.78
2024-03-15T07:47:41.545Z,100447.00
2024-03-15T07:50:44.587Z,100453.78
2024-03-15T07:53:47.563Z,100444.84
2024-03-15T07:56:51.026Z,100439.16
2024-03-15T07:59:54.224Z,100450.25
2024-03-15T08:02:59.689Z,100446.59
2024-03-15T08:06:06.448Z,100441.97
2024-03-15T08:09:12.534Z,100456.94
2024-03-15T08:12:16.400Z,100452.62
2024-03-15T08:15:19.467Z,100453.31
2024-03-15T08:18:22.753Z,100446.59
2024-03-15T08:21:26.043Z,100449.12
2024-03-15T08:24:29.330Z,100456.25
2024-03-15T08:27:32.649Z,100455.56
2024-03-15T08:30:35.764Z,100458.72
2024-03-15T08:33:38.614Z,100458.72
2024-03-15T08:36:42.281Z,100450.84
2024-03-15T08:39:45.380Z,100457.16
2024-03-15T08:42:48.327Z,100459.44
2024-03-15T08:45:51.309Z,100444.44
2024-03-15T08:48:55.135Z,100462.50
2024-03-15T08:51:57.826Z,100456.66
2024-03-15T08:55:00.849Z,100460.09
2024-03-15T08:58:03.651Z,100462.50
2024-03-15T09:01:06.933Z,100455.41
2024-03-15T09:04:09.890Z,100452.12
2024-03-15T09:07:13.007Z,100449.03
2024-03-15T09:10:16.329Z,100455.19
2024-03-15T09:13:20.491Z,100451.97
2024-03-15T09:16:23.538Z,100448.19
2024-03-15T09:19:26.936Z,100448.84
2024-03-15T09:22:29.692Z,100450.16
2024-03-15T09:25:32.898Z,100446.72
2024-03-15T09:28:39.529Z,100447.03
2024-03-15T09:32:00.396Z,100447.94
2024-03-15T09:35:06.232Z,100445.38
2024-03-15T09:38:09.096Z,100442.72
2024-03-15T09:41:13.256Z,100444.47
2024-03-15T09:44:18.024Z,100439.84
2024-03-15T09:47:21.024Z,100445.91
2024-03-15T09:50:30.723Z,100440.63
2024-03-15T09:53:33.528Z,100442.25
2024-03-15T09:56:38.424Z,100439.88
2024-03-15T09:59:42.595Z,100438.28
2024-03-15T10:02:53.206Z,100450.37
2024-03-15T10:05:57.620Z,100448.91
2024-03-15T10:09:05.277Z,100444.25
2024-03-15T10:12:11.376Z,100443.53
2024-03-15T10:15:16.225Z,100445.56
2024-03-15T10:18:19.169Z,100446.28
2024-03-15T10:21:21.866Z,100447.50
2024-03-15T10:24:25.734Z,100448.41
2024-03-15T10:27:29.032Z,100439.38
2024-03-15T10:30:33.275Z,100440.94
2024-03-15T10:33:36.625Z,100440.53
2024-03-15T10:36:41.363Z,100446.56
2024-03-15T10:39:44.306Z,100438.25
2024-03-15T10:42:49.738Z,100443.09
2024-03-15T10:45:52.509Z,100431.09
2024-03-15T10:48:57.466Z,100442.75
2024-03-15T10:52:00.368Z,100436.44
2024-03-15T10:55:06.471Z,100440.19
2024-03-15T10:58:10.345Z,100450.44
2024-03-15T11:01:14.202Z,100430.63
2024-03-15T11:04:17.282Z,100432.50
2024-03-15T11:07:21.942Z,100430.25
2024-03-15T11:10:24.771Z,100422.50
2024-03-15T11:13:34.637Z,100431.38
2024-03-15T11:16:37.346Z,100429.87
2024-03-15T11:19:49.648Z,100426.44
2024-03-15T11:22:56.400Z,100411.56
2024-03-15T11:25:59.235Z,100424.22
2024-03-15T11:29:03.617Z,100416.31
2024-03-15T11:32:15.100Z,100420.84
2024-03-15T11:35:18.869Z,100414.91
2024-03-15T11:38:21.939Z,100415.75
2024-03-15T11:41:24.672Z,100418.59
2024-03-15T11:44:29.097Z,100414.25
2024-03-15T11:47:33.385Z,100423.00
2024-03-15T11:50:37.362Z,100419.06
2024-03-15T11:53:40.007Z,100422.91
2024-03-15T11:56:44.296Z,100417.78
2024-03-15T11:59:47.929Z,100420.47
2024-03-15T12:02:54.203Z,100417.31
2024-03-15T12:05:59.671Z,100420.84
2024-03-15T12:09:06.282Z,100420.06
2024-03-15T12:12:09.170Z,100393.47
2024-03-15T12:15:29.589Z,100400.09
2024-03-15T12:18:32.648Z,100401.94
2024-03-15T12:21:39.995Z,100408.97
2024-03-15T12:24:43.026Z,100401.31
2024-03-15T12:27:45.832Z,100399.50
2024-03-15T12:30:50.787Z,100392.56
2024-03-15T12:33:53.695Z,100387.53
2024-03-15T12:36:57.673Z,100397.81
2024-03-15T12:40:00.434Z,100394.06
2024-03-15T12:43:04.222Z,100399.59
2024-03-15T12:46:12.491Z,100395.50
2024-03-15T12:49:15.429Z,100375.81
2024-03-15T12:52:18.122Z,100380.75
2024-03-15T12:55:21.143Z,100370.44
2024-03-15T12:58:23.840Z,100375.56
2024-03-15T13:01:26.990Z,100377.09
2024-03-15T13:04:29.901Z,100382.59
2024-03-15T13:07:33.568Z,100382.72
2024-03-15T13:10:36.208Z,100379.69
2024-03-15T13:13:39.351Z,100378.91
2024-03-15T13:16:42.604Z,100375.44
2024-03-15T13:19:45.607Z,100379.00
2024-03-15T13:22:54.229Z,100369.91
2024-03-15T13:25:58.933Z,100369.66
2024-03-15T13:29:01.569Z,100365.06
2024-03-15T13:32:05.830Z,100370.25
2024-03-15T13:35:19.179Z,100371.59
2024-03-15T13:38:22.126Z,100374.72
2024-03-15T13:41:25.992Z,100369.88
2024-03-15T13:44:29.141Z,100375.41
2024-03-15T13:48:15.578Z,100355.69
2024-03-15T13:51:18.554Z,100367.13
2024-03-15T13:54:21.241Z,100367.56
2024-03-15T13:57:24.187Z,100360.56
2024-03-15T14:00:36.017Z,100359.69
2024-03-15T14:03:39.370Z,100365.97
2024-03-15T14:06:42.827Z,100366.44
2024-03-15T14:09:45.822Z,100355.78
2024-03-15T14:12:50.544Z,100358.16
2024-03-15T14:15:53.718Z,100353.00
2024-03-15T14:18:59.454Z,100351.03
2024-03-15T14:22:05.293Z,100350.31
2024-03-15T14:25:08.177Z,100347.56
2024-03-15T14:28:11.622Z,100346.78
2024-03-15T14:31:14.396Z,100347.16
2024-03-15T14:34:17.369Z,100333.50
2024-03-15T14:37:21.665Z,100347.22
2024-03-15T14:40:28.176Z,100343.25
2024-03-15T14:43:31.101Z,100337.75
2024-03-15T14:46:36.610Z,100340.66
2024-03-15T14:49:39.327Z,100352.81
2024-03-15T14:52:42.329Z,100340.72
2024-03-15T14:55:44.980Z,100345.16
2024-03-15T14:58:49.357Z,100348.06
2024-03-15T15:01:52.302Z,100337.50
2024-03-15T15:04:55.670Z,100338.31
2024-03-15T15:08:04.498Z,100333.66
2024-03-15T15:11:07.505Z,100341.22
2024-03-15T15:14:10.378Z,100330.59
2024-03-15T15:17:14.308Z,100330.22
2024-03-15T15:20:19.742Z,100329.44
2024-03-15T15:23:24.624Z,100334.59
2024-03-15T15:26:27.546Z,100342.44
2024-03-15T15:29:30.529Z,100333.41
2024-03-15T15:32:33.657Z,100338.94
2024-03-15T15:35:36.535Z,100335.78
2024-03-15T15:38:39.654Z,100342.91
2024-03-15T15:41:43.691Z,100341.75
2024-03-15T15:44:46.401Z,100338.19
2024-03-15T15:47:49.305Z,100331.91
2024-03-15T15:50:51.947Z,100340.16
2024-03-15T15:53:55.850Z,100339.00
2024-03-15T15:56:58.451Z,100345.28
2024-03-15T16:00:01.942Z,100351.63
2024-03-15T16:03:08.509Z,100348.47
2024-03-15T16:06:11.499Z,100352.41
2024-03-15T16:09:16.289Z,100353.94
2024-03-15T16:12:19.250Z,100347.25
2024-03-15T16:15:22.935Z,100347.66
2024-03-15T16:18:25.925Z,100352.37
2024-03-15T16:21:28.724Z,100342.50
2024-03-15T16:24:31.835Z,100354.28
2024-03-15T16:27:34.642Z,100356.25
2024-03-15T16:30:37.659Z,100350.72
2024-03-15T16:33:40.407Z,100354.59
2024-03-15T16:36:43.488Z,100353.34
2024-03-15T16:39:46.416Z,100360.34
2024-03-15T16:42:53.977Z,100360.62
2024-03-15T16:45:58.507Z,100364.50
2024-03-15T16:49:02.779Z,100362.84
2024-03-15T16:52:05.802Z,100369.75
2024-03-15T16:55:13.077Z,100372.75
2024-03-15T16:58:16.404Z,100366.28
2024-03-15T17:01:19.386Z,100381.97
2024-03-15T17:04:22.318Z,100384.97
2024-03-15T17:07:25.939Z,100390.28
2024-03-15T17:10:28.685Z,100386.22
2024-03-15T17:13:31.746Z,100391.66
2024-03-15T17:16:34.621Z,100395.44
2024-03-15T17:19:40.248Z,100397.25
2024-03-15T17:22:42.926Z,100392.38
2024-03-15T17:25:50.946Z,100406.22
2024-03-15T17:28:53.894Z,100401.53
2024-03-15T17:31:56.783Z,100409.72
2024-03-15T17:35:00.701Z,100399.41
2024-03-15T17:38:04.224Z,100406.47
2024-03-15T17:41:07.043Z,100401.41
2024-03-15T17:44:10.063Z,100413.19
2024-03-15T17:47:12.974Z,100408.31
2024-03-15T17:50:15.864Z,100417.72
2024-03-15T17:53:18.548Z,100420.66
2024-03-15T17:56:24.957Z,100410.72
2024-03-15T17:59:27.907Z,100429.94
2024-03-15T18:02:30.980Z,100421.94
2024-03-15T18:05:34.165Z,100427.31
2024-03-15T18:08:36.789Z,100429.50
2024-03-15T18:11:40.153Z,100426.44
2024-03-15T18:14:44.813Z,100436.09
2024-03-15T18:17:48.270Z,100426.34
2024-03-15T18:20:51.227Z,100433.37
2024-03-15T18:23:54.604Z,100430.22
2024-03-15T18:26:57.340Z,100434.09
2024-03-15T18:30:00.599Z,100440.25
2024-03-15T18:33:04.148Z,100429.41
2024-03-15T18:36:07.716Z,100436.91
2024-03-15T18:39:10.313Z,100439.56
2024-03-15T18:42:13.291Z,100438.84
2024-03-15T18:45:16.267Z,100434.63
2024-03-15T18:48:19.963Z,100448.34
2024-03-15T18:51:23.553Z,100416.87
2024-03-15T18:54:26.535Z,100450.84
2024-03-15T18:57:29.159Z,100450.28
2024-03-15T19:00:34.379Z,100446.44
2024-03-15T19:03:38.970Z,100451.19
2024-03-15T19:06:42.238Z,100448.91
2024-03-15T19:09:47.166Z,100454.88
2024-03-15T19:12:50.281Z,100453.69
2024-03-15T19:15:53.039Z,100459.72
2024-03-15T19:18:56.203Z,100455.19
2024-03-15T19:21:59.273Z,100456.22
2024-03-15T19:25:02.706Z,100459.72
2024-03-15T19:28:05.767Z,100457.44
2024-03-15T19:31:08.810Z,100471.63
2024-03-15T19:34:11.649Z,100464.25
2024-03-15T19:37:14.716Z,100472.56
2024-03-15T19:40:17.626Z,100465.41
2024-03-15T19:43:22.537Z,100467.75
2024-03-15T19:46:26.146Z,100470.97
2024-03-15T19:49:29.351Z,100467.94
2024-03-15T19:52:32.610Z,100465.88
2024-03-15T19:55:39.367Z,100465.31
2024-03-15T19:58:43.366Z,100469.22
2024-03-15T20:01:46.476Z,100469.84
2024-03-15T20:04:50.133Z,100460.69
2024-03-15T20:07:53.088Z,100469.22
2024-03-15T20:10:56.804Z,100470.69
2024-03-15T20:14:02.575Z,100465.13
2024-03-15T20:17:06.417Z,100470.13
2024-03-15T20:20:11.514Z,100479.06
2024-03-15T20:23:14.512Z,100485.00
2024-03-15T20:26:18.301Z,100484.94
2024-03-15T20:29:21.201Z,100487.19
2024-03-15T20:32:24.037Z,100488.09
2024-03-15T20:35:29.206Z,100483.09
2024-03-15T20:38:32.384Z,100480.78
2024-03-15T20:41:35.530Z,100493.75
2024-03-15T20:44:39.489Z,100489.38
2024-03-15T20:47:43.470Z,100492.22
2024-03-15T20:50:46.269Z,100482.97
2024-03-15T20:53:52.840Z,100490.50
2024-03-15T20:56:55.793Z,100488.06
2024-03-15T20:59:58.790Z,100483.63
2024-03-15T21:03:01.643Z,100487.97
2024-03-15T21:06:06.420Z,100493.63
2024-03-15T21:09:10.666Z,100487.28
2024-03-15T21:12:13.994Z,100486.31
2024-03-15T21:15:17.371Z,100485.78
2024-03-15T21:18:21.413Z,100483.50
2024-03-15T21:21:24.255Z,100485.22
2024-03-15T21:24:27.255Z,100477.75
2024-03-15T21:27:31.696Z,100484.66
2024-03-15T21:30:34.671Z,100483.53
2024-03-15T21:33:37.456Z,100485.56
2024-03-15T21:36:40.726Z,100484.13
2024-03-15T21:39:43.399Z,100487.06
2024-03-15T21:42:48.630Z,100498.47
2024-03-15T21:45:53.915Z,100492.06
2024-03-15T21:48:56.962Z,100489.75
2024-03-15T21:51:59.898Z,100495.97
2024-03-15T21:55:05.704Z,100499.72
2024-03-15T21:58:09.428Z,100497.22
2024-03-15T22:01:13.683Z,100490.94
2024-03-15T22:04:20.171Z,100515.97
2024-03-15T22:07:22.770Z,100505.37
2024-03-15T22:10:25.685Z,100502.63
2024-03-15T22:13:29.817Z,100505.97
2024-03-15T22:16:36.879Z,100507.31
2024-03-15T22:19:39.465Z,100505.41
2024-03-15T22:22:42.374Z,100490.41
2024-03-15T22:25:51.498Z,100503.91
2024-03-15T22:28:54.686Z,100510.81
2024-03-15T22:31:57.278Z,100507.44
2024-03-15T22:35:00.309Z,100494.78
2024-03-15T22:38:04.285Z,100507.00
2024-03-15T22:41:07.474Z,100496.16
2024-03-15T22:44:10.090Z,100517.19
2024-03-15T22:47:13.038Z,100497.47
2024-03-15T22:50:15.822Z,100515.44
2024-03-15T22:53:18.761Z,100514.44
2024-03-15T22:56:21.417Z,100508.06
2024-03-15T22:59:24.311Z,100517.06
2024-03-15T23:02:28.073Z,100511.63
2024-03-15T23:05:30.897Z,100500.72
2024-03-15T23:08:33.644Z,100512.97
2024-03-15T23:11:36.571Z,100513.66
2024-03-15T23:14:39.129Z,100516.97
2024-03-15T23:17:42.074Z,100503.41
2024-03-15T23:20:49.949Z,100500.50
2024-03-15T23:23:53.007Z,100517.94
2024-03-15T23:26:55.802Z,100519.88
2024-03-15T23:29:58.673Z,100519.69
2024-03-15T23:33:01.972Z,100517.84
2024-03-15T23:36:05.236Z,100503.22
2024-03-15T23:39:16.793Z,100517.97
2024-03-15T23:42:20.030Z,100516.03
2024-03-15T23:45:22.782Z,100524.22
2024-03-15T23:48:28.121Z,100518.44
2024-03-15T23:51:30.808Z,100521.38
2024-03-15T23:54:33.823Z,100514.91
2024-03-15T23:57:37.033Z,100509.69
